Terminal Aerodrome Forecast
Issued by NWS

Home | Current Version | Previous Version | Text Only | Print | Product List | Glossary On
Versions: 1 2 3 4 5 6 7 8 9 10 11 12 13 14 15 16 17 18 19 20 21 22 23 24 25 26 27 28 29
000
FTUS43 KBIS 250023 AAA
TAFDIK
TAF AMD
KDIK 250023Z 2500/2524 19012KT P6SM SCT050
     FM250200 30015G21KT 6SM -SHRA BKN015
     FM250300 31020G30KT 5SM -SHRA OVC008
     FM250500 31025G35KT 3SM -SHRA OVC008
     FM250800 31027G37KT 6SM -SHRA OVC015
     FM251100 30023G33KT P6SM SCT045
     FM252300 31017G24KT P6SM SKC=

USA.gov is the U.S. government's official web portal to all federal, state and local government web resources and services.